sensor_id;sensor_type;location;lat;lon;timestamp;P1;durP1;ratioP1;P2;durP2;ratioP2
45686;SDS011;31399;51.176;7.776;2023-05-28T00:01:56;7.05;;;3.42;;
45686;SDS011;31399;51.176;7.776;2023-05-28T00:04:23;6.25;;;2.80;;
45686;SDS011;31399;51.176;7.776;2023-05-28T00:06:51;7.30;;;3.00;;
45686;SDS011;31399;51.176;7.776;2023-05-28T00:09:19;7.68;;;2.85;;
45686;SDS011;31399;51.176;7.776;2023-05-28T00:11:46;7.95;;;2.55;;
45686;SDS011;31399;51.176;7.776;2023-05-28T00:14:12;7.50;;;3.03;;
45686;SDS011;31399;51.176;7.776;2023-05-28T00:16:39;7.13;;;2.67;;
45686;SDS011;31399;51.176;7.776;2023-05-28T00:19:07;9.68;;;3.03;;
45686;SDS011;31399;51.176;7.776;2023-05-28T00:21:35;7.15;;;3.05;;
45686;SDS011;31399;51.176;7.776;2023-05-28T00:24:03;5.13;;;2.25;;
45686;SDS011;31399;51.176;7.776;2023-05-28T00:26:30;6.30;;;2.90;;
45686;SDS011;31399;51.176;7.776;2023-05-28T00:28:56;7.03;;;2.38;;
45686;SDS011;31399;51.176;7.776;2023-05-28T00:31:23;6.38;;;2.45;;
45686;SDS011;31399;51.176;7.776;2023-05-28T00:33:49;7.63;;;2.60;;
45686;SDS011;31399;51.176;7.776;2023-05-28T00:36:16;6.30;;;2.60;;
45686;SDS011;31399;51.176;7.776;2023-05-28T00:38:42;10.75;;;2.85;;
45686;SDS011;31399;51.176;7.776;2023-05-28T00:41:09;7.95;;;2.80;;
45686;SDS011;31399;51.176;7.776;2023-05-28T00:43:36;6.78;;;2.50;;
45686;SDS011;31399;51.176;7.776;2023-05-28T00:46:03;6.68;;;3.00;;
45686;SDS011;31399;51.176;7.776;2023-05-28T00:48:29;7.50;;;3.10;;
45686;SDS011;31399;51.176;7.776;2023-05-28T00:51:00;6.68;;;2.95;;
45686;SDS011;31399;51.176;7.776;2023-05-28T00:53:26;7.28;;;2.95;;
45686;SDS011;31399;51.176;7.776;2023-05-28T00:55:53;10.77;;;3.58;;
45686;SDS011;31399;51.176;7.776;2023-05-28T00:58:20;9.27;;;3.15;;
45686;SDS011;31399;51.176;7.776;2023-05-28T01:00:48;7.75;;;3.00;;
45686;SDS011;31399;51.176;7.776;2023-05-28T01:03:15;8.27;;;2.78;;
45686;SDS011;31399;51.176;7.776;2023-05-28T01:05:42;6.25;;;2.42;;
45686;SDS011;31399;51.176;7.776;2023-05-28T01:08:09;7.15;;;2.40;;
45686;SDS011;31399;51.176;7.776;2023-05-28T01:10:36;6.60;;;2.38;;
45686;SDS011;31399;51.176;7.776;2023-05-28T01:13:04;6.57;;;2.88;;
45686;SDS011;31399;51.176;7.776;2023-05-28T01:15:31;6.63;;;2.55;;
45686;SDS011;31399;51.176;7.776;2023-05-28T01:17:59;8.05;;;2.63;;
45686;SDS011;31399;51.176;7.776;2023-05-28T01:20:27;8.23;;;2.80;;
45686;SDS011;31399;51.176;7.776;2023-05-28T01:22:58;9.30;;;3.08;;
45686;SDS011;31399;51.176;7.776;2023-05-28T01:25:26;6.72;;;2.97;;
45686;SDS011;31399;51.176;7.776;2023-05-28T01:27:53;6.38;;;2.60;;
45686;SDS011;31399;51.176;7.776;2023-05-28T01:30:20;8.48;;;3.22;;
45686;SDS011;31399;51.176;7.776;2023-05-28T01:32:47;6.57;;;2.40;;
45686;SDS011;31399;51.176;7.776;2023-05-28T01:35:14;10.43;;;3.25;;
45686;SDS011;31399;51.176;7.776;2023-05-28T01:37:43;7.93;;;3.33;;
45686;SDS011;31399;51.176;7.776;2023-05-28T01:40:11;10.18;;;3.35;;
45686;SDS011;31399;51.176;7.776;2023-05-28T01:42:38;7.68;;;2.92;;
45686;SDS011;31399;51.176;7.776;2023-05-28T01:45:05;5.63;;;2.60;;
45686;SDS011;31399;51.176;7.776;2023-05-28T01:47:32;6.45;;;2.78;;
45686;SDS011;31399;51.176;7.776;2023-05-28T01:49:59;9.32;;;3.42;;
45686;SDS011;31399;51.176;7.776;2023-05-28T01:52:26;8.43;;;2.45;;
45686;SDS011;31399;51.176;7.776;2023-05-28T01:54:53;6.82;;;3.10;;
45686;SDS011;31399;51.176;7.776;2023-05-28T01:57:19;7.13;;;3.47;;
45686;SDS011;31399;51.176;7.776;2023-05-28T01:59:46;6.90;;;2.80;;
45686;SDS011;31399;51.176;7.776;2023-05-28T02:02:12;5.45;;;2.72;;
45686;SDS011;31399;51.176;7.776;2023-05-28T02:04:39;8.93;;;2.80;;
45686;SDS011;31399;51.176;7.776;2023-05-28T02:07:06;10.90;;;2.80;;
45686;SDS011;31399;51.176;7.776;2023-05-28T02:09:32;4.90;;;2.53;;
45686;SDS011;31399;51.176;7.776;2023-05-28T02:11:59;6.78;;;2.75;;
45686;SDS011;31399;51.176;7.776;2023-05-28T02:14:29;6.82;;;2.55;;
45686;SDS011;31399;51.176;7.776;2023-05-28T02:16:56;5.15;;;2.58;;
45686;SDS011;31399;51.176;7.776;2023-05-28T02:19:22;9.90;;;2.45;;
45686;SDS011;31399;51.176;7.776;2023-05-28T02:21:51;6.80;;;2.20;;
45686;SDS011;31399;51.176;7.776;2023-05-28T02:24:18;6.45;;;2.60;;
45686;SDS011;31399;51.176;7.776;2023-05-28T02:26:44;5.80;;;2.70;;
45686;SDS011;31399;51.176;7.776;2023-05-28T02:29:11;5.13;;;2.45;;
45686;SDS011;31399;51.176;7.776;2023-05-28T02:31:38;7.20;;;2.72;;
45686;SDS011;31399;51.176;7.776;2023-05-28T02:34:04;10.23;;;2.72;;
45686;SDS011;31399;51.176;7.776;2023-05-28T02:36:31;8.05;;;3.10;;
45686;SDS011;31399;51.176;7.776;2023-05-28T02:38:59;5.60;;;2.60;;
45686;SDS011;31399;51.176;7.776;2023-05-28T02:41:26;10.73;;;3.20;;
45686;SDS011;31399;51.176;7.776;2023-05-28T02:43:53;5.65;;;2.55;;
45686;SDS011;31399;51.176;7.776;2023-05-28T02:46:19;7.55;;;2.60;;
45686;SDS011;31399;51.176;7.776;2023-05-28T02:48:46;7.30;;;2.60;;
45686;SDS011;31399;51.176;7.776;2023-05-28T02:51:13;6.60;;;2.63;;
45686;SDS011;31399;51.176;7.776;2023-05-28T02:53:39;3.60;;;2.17;;
45686;SDS011;31399;51.176;7.776;2023-05-28T02:56:06;9.95;;;2.40;;
45686;SDS011;31399;51.176;7.776;2023-05-28T02:58:32;6.78;;;2.17;;
45686;SDS011;31399;51.176;7.776;2023-05-28T03:00:59;7.32;;;2.90;;
45686;SDS011;31399;51.176;7.776;2023-05-28T03:03:26;6.50;;;2.70;;
45686;SDS011;31399;51.176;7.776;2023-05-28T03:05:53;6.10;;;2.97;;
45686;SDS011;31399;51.176;7.776;2023-05-28T03:08:20;9.63;;;3.35;;
45686;SDS011;31399;51.176;7.776;2023-05-28T03:10:47;7.93;;;2.88;;
45686;SDS011;31399;51.176;7.776;2023-05-28T03:13:13;8.57;;;3.45;;
45686;SDS011;31399;51.176;7.776;2023-05-28T03:15:40;5.70;;;2.55;;
45686;SDS011;31399;51.176;7.776;2023-05-28T03:18:06;8.38;;;2.90;;
45686;SDS011;31399;51.176;7.776;2023-05-28T03:20:33;7.75;;;2.95;;
45686;SDS011;31399;51.176;7.776;2023-05-28T03:23:00;12.55;;;2.63;;
45686;SDS011;31399;51.176;7.776;2023-05-28T03:25:27;7.15;;;2.90;;
45686;SDS011;31399;51.176;7.776;2023-05-28T03:27:54;10.18;;;2.85;;
45686;SDS011;31399;51.176;7.776;2023-05-28T03:30:20;8.27;;;2.85;;
45686;SDS011;31399;51.176;7.776;2023-05-28T03:32:48;5.47;;;2.80;;
45686;SDS011;31399;51.176;7.776;2023-05-28T03:35:15;7.55;;;2.47;;
45686;SDS011;31399;51.176;7.776;2023-05-28T03:37:43;13.23;;;3.40;;
45686;SDS011;31399;51.176;7.776;2023-05-28T03:40:09;6.70;;;2.42;;
45686;SDS011;31399;51.176;7.776;2023-05-28T03:42:37;7.07;;;2.47;;
45686;SDS011;31399;51.176;7.776;2023-05-28T03:45:04;8.70;;;2.92;;
45686;SDS011;31399;51.176;7.776;2023-05-28T03:47:31;5.90;;;3.10;;
45686;SDS011;31399;51.176;7.776;2023-05-28T03:49:59;5.45;;;2.55;;
45686;SDS011;31399;51.176;7.776;2023-05-28T03:52:26;9.18;;;2.60;;
45686;SDS011;31399;51.176;7.776;2023-05-28T03:54:53;8.23;;;2.33;;
45686;SDS011;31399;51.176;7.776;2023-05-28T03:57:20;8.35;;;2.70;;
45686;SDS011;31399;51.176;7.776;2023-05-28T03:59:47;4.38;;;2.70;;
45686;SDS011;31399;51.176;7.776;2023-05-28T04:02:14;5.63;;;2.53;;
45686;SDS011;31399;51.176;7.776;2023-05-28T04:04:40;9.75;;;2.90;;
45686;SDS011;31399;51.176;7.776;2023-05-28T04:07:07;7.00;;;2.33;;
45686;SDS011;31399;51.176;7.776;2023-05-28T04:09:34;5.55;;;2.15;;
45686;SDS011;31399;51.176;7.776;2023-05-28T04:12:01;4.78;;;2.85;;
45686;SDS011;31399;51.176;7.776;2023-05-28T04:14:28;7.45;;;3.20;;
45686;SDS011;31399;51.176;7.776;2023-05-28T04:16:54;10.15;;;2.97;;
45686;SDS011;31399;51.176;7.776;2023-05-28T04:19:24;6.13;;;2.42;;
45686;SDS011;31399;51.176;7.776;2023-05-28T04:21:51;7.97;;;3.15;;
45686;SDS011;31399;51.176;7.776;2023-05-28T04:24:17;7.63;;;3.15;;
45686;SDS011;31399;51.176;7.776;2023-05-28T04:26:44;5.15;;;2.38;;
45686;SDS011;31399;51.176;7.776;2023-05-28T04:29:11;3.83;;;2.60;;
45686;SDS011;31399;51.176;7.776;2023-05-28T04:31:39;5.43;;;3.05;;
45686;SDS011;31399;51.176;7.776;2023-05-28T04:34:07;5.90;;;2.92;;
45686;SDS011;31399;51.176;7.776;2023-05-28T04:36:33;7.80;;;2.50;;
45686;SDS011;31399;51.176;7.776;2023-05-28T04:39:03;8.48;;;2.60;;
45686;SDS011;31399;51.176;7.776;2023-05-28T04:41:30;9.38;;;2.80;;
45686;SDS011;31399;51.176;7.776;2023-05-28T04:43:57;5.32;;;2.67;;
45686;SDS011;31399;51.176;7.776;2023-05-28T04:46:24;9.25;;;3.10;;
45686;SDS011;31399;51.176;7.776;2023-05-28T04:48:52;9.63;;;2.78;;
45686;SDS011;31399;51.176;7.776;2023-05-28T04:51:18;13.60;;;3.38;;
45686;SDS011;31399;51.176;7.776;2023-05-28T04:53:47;10.35;;;2.95;;
45686;SDS011;31399;51.176;7.776;2023-05-28T04:56:14;7.28;;;2.97;;
45686;SDS011;31399;51.176;7.776;2023-05-28T04:58:41;7.95;;;2.88;;
45686;SDS011;31399;51.176;7.776;2023-05-28T05:01:08;9.15;;;2.90;;
45686;SDS011;31399;51.176;7.776;2023-05-28T05:03:35;8.93;;;2.95;;
45686;SDS011;31399;51.176;7.776;2023-05-28T05:06:01;6.25;;;2.83;;
45686;SDS011;31399;51.176;7.776;2023-05-28T05:08:29;8.38;;;2.53;;
45686;SDS011;31399;51.176;7.776;2023-05-28T05:10:56;7.93;;;2.83;;
45686;SDS011;31399;51.176;7.776;2023-05-28T05:13:22;10.50;;;2.70;;
45686;SDS011;31399;51.176;7.776;2023-05-28T05:15:49;8.50;;;3.10;;
45686;SDS011;31399;51.176;7.776;2023-05-28T05:18:17;7.53;;;2.20;;
45686;SDS011;31399;51.176;7.776;2023-05-28T05:20:44;6.32;;;2.60;;
45686;SDS011;31399;51.176;7.776;2023-05-28T05:23:11;8.25;;;3.13;;
45686;SDS011;31399;51.176;7.776;2023-05-28T05:25:37;6.65;;;2.60;;
45686;SDS011;31399;51.176;7.776;2023-05-28T05:28:04;6.43;;;2.35;;
45686;SDS011;31399;51.176;7.776;2023-05-28T05:30:31;8.13;;;2.80;;
45686;SDS011;31399;51.176;7.776;2023-05-28T05:32:57;7.78;;;2.58;;
45686;SDS011;31399;51.176;7.776;2023-05-28T05:35:24;6.25;;;2.72;;
45686;SDS011;31399;51.176;7.776;2023-05-28T05:37:50;5.40;;;2.30;;
45686;SDS011;31399;51.176;7.776;2023-05-28T05:40:17;8.00;;;2.33;;
45686;SDS011;31399;51.176;7.776;2023-05-28T05:42:44;12.75;;;3.00;;
45686;SDS011;31399;51.176;7.776;2023-05-28T05:45:10;7.78;;;2.72;;
45686;SDS011;31399;51.176;7.776;2023-05-28T05:47:37;4.97;;;3.05;;
45686;SDS011;31399;51.176;7.776;2023-05-28T05:50:04;10.18;;;2.63;;
45686;SDS011;31399;51.176;7.776;2023-05-28T05:52:31;7.72;;;2.75;;
45686;SDS011;31399;51.176;7.776;2023-05-28T05:57:36;5.53;;;2.28;;
45686;SDS011;31399;51.176;7.776;2023-05-28T06:00:04;6.00;;;2.67;;
45686;SDS011;31399;51.176;7.776;2023-05-28T06:02:31;4.57;;;2.42;;
45686;SDS011;31399;51.176;7.776;2023-05-28T06:04:58;4.82;;;2.22;;
45686;SDS011;31399;51.176;7.776;2023-05-28T06:07:25;8.45;;;2.63;;
45686;SDS011;31399;51.176;7.776;2023-05-28T06:09:51;6.93;;;2.35;;
45686;SDS011;31399;51.176;7.776;2023-05-28T06:12:18;6.78;;;2.35;;
45686;SDS011;31399;51.176;7.776;2023-05-28T06:14:44;4.00;;;2.28;;
45686;SDS011;31399;51.176;7.776;2023-05-28T06:17:13;5.55;;;2.58;;
45686;SDS011;31399;51.176;7.776;2023-05-28T06:19:40;10.88;;;2.40;;
45686;SDS011;31399;51.176;7.776;2023-05-28T06:24:58;6.45;;;2.40;;
45686;SDS011;31399;51.176;7.776;2023-05-28T06:27:27;5.35;;;2.70;;
45686;SDS011;31399;51.176;7.776;2023-05-28T06:29:54;3.08;;;1.88;;
45686;SDS011;31399;51.176;7.776;2023-05-28T06:36:02;5.65;;;2.35;;
45686;SDS011;31399;51.176;7.776;2023-05-28T06:41:46;3.97;;;1.90;;
45686;SDS011;31399;51.176;7.776;2023-05-28T06:48:06;6.57;;;1.98;;
45686;SDS011;31399;51.176;7.776;2023-05-28T06:50:33;4.50;;;1.85;;
45686;SDS011;31399;51.176;7.776;2023-05-28T06:53:00;6.30;;;2.05;;
45686;SDS011;31399;51.176;7.776;2023-05-28T06:55:28;4.93;;;1.95;;
45686;SDS011;31399;51.176;7.776;2023-05-28T06:57:54;7.70;;;2.17;;
45686;SDS011;31399;51.176;7.776;2023-05-28T07:00:21;4.55;;;2.03;;
45686;SDS011;31399;51.176;7.776;2023-05-28T07:02:48;4.05;;;2.08;;
45686;SDS011;31399;51.176;7.776;2023-05-28T07:05:14;4.03;;;1.73;;
45686;SDS011;31399;51.176;7.776;2023-05-28T07:07:41;6.70;;;2.47;;
45686;SDS011;31399;51.176;7.776;2023-05-28T07:10:08;4.85;;;2.03;;
45686;SDS011;31399;51.176;7.776;2023-05-28T07:12:37;6.30;;;2.10;;
45686;SDS011;31399;51.176;7.776;2023-05-28T07:15:04;7.35;;;2.00;;
45686;SDS011;31399;51.176;7.776;2023-05-28T07:17:32;3.78;;;1.90;;
45686;SDS011;31399;51.176;7.776;2023-05-28T07:19:59;6.07;;;2.63;;
45686;SDS011;31399;51.176;7.776;2023-05-28T07:22:26;6.30;;;2.17;;
45686;SDS011;31399;51.176;7.776;2023-05-28T07:24:53;7.20;;;2.22;;
45686;SDS011;31399;51.176;7.776;2023-05-28T07:27:19;5.82;;;2.05;;
45686;SDS011;31399;51.176;7.776;2023-05-28T07:29:46;5.30;;;1.85;;
45686;SDS011;31399;51.176;7.776;2023-05-28T07:32:13;7.80;;;2.58;;
45686;SDS011;31399;51.176;7.776;2023-05-28T07:34:40;10.40;;;2.00;;
45686;SDS011;31399;51.176;7.776;2023-05-28T07:37:08;5.13;;;2.22;;
45686;SDS011;31399;51.176;7.776;2023-05-28T07:39:35;4.32;;;2.00;;
45686;SDS011;31399;51.176;7.776;2023-05-28T07:42:01;6.15;;;1.98;;
45686;SDS011;31399;51.176;7.776;2023-05-28T07:44:28;5.20;;;2.08;;
45686;SDS011;31399;51.176;7.776;2023-05-28T07:46:55;5.75;;;2.10;;
45686;SDS011;31399;51.176;7.776;2023-05-28T07:49:22;3.67;;;1.85;;
45686;SDS011;31399;51.176;7.776;2023-05-28T07:51:48;6.25;;;2.17;;
45686;SDS011;31399;51.176;7.776;2023-05-28T07:54:15;10.07;;;3.00;;
45686;SDS011;31399;51.176;7.776;2023-05-28T07:56:41;5.32;;;2.05;;
45686;SDS011;31399;51.176;7.776;2023-05-28T07:59:08;4.15;;;2.08;;
45686;SDS011;31399;51.176;7.776;2023-05-28T08:01:37;5.28;;;2.20;;
45686;SDS011;31399;51.176;7.776;2023-05-28T08:04:03;6.15;;;2.55;;
45686;SDS011;31399;51.176;7.776;2023-05-28T08:06:30;6.63;;;2.13;;
45686;SDS011;31399;51.176;7.776;2023-05-28T08:08:58;4.70;;;1.95;;
45686;SDS011;31399;51.176;7.776;2023-05-28T08:11:24;4.30;;;2.10;;
45686;SDS011;31399;51.176;7.776;2023-05-28T08:13:52;3.85;;;1.63;;
45686;SDS011;31399;51.176;7.776;2023-05-28T08:16:18;3.28;;;1.98;;
45686;SDS011;31399;51.176;7.776;2023-05-28T08:18:45;4.90;;;2.20;;
45686;SDS011;31399;51.176;7.776;2023-05-28T08:21:12;4.70;;;1.83;;
45686;SDS011;31399;51.176;7.776;2023-05-28T08:23:38;5.20;;;2.13;;
45686;SDS011;31399;51.176;7.776;2023-05-28T08:26:05;5.53;;;1.75;;
45686;SDS011;31399;51.176;7.776;2023-05-28T08:28:32;7.00;;;2.20;;
45686;SDS011;31399;51.176;7.776;2023-05-28T08:31:02;4.50;;;2.13;;
45686;SDS011;31399;51.176;7.776;2023-05-28T08:33:29;4.72;;;1.55;;
45686;SDS011;31399;51.176;7.776;2023-05-28T08:35:55;6.72;;;1.83;;
45686;SDS011;31399;51.176;7.776;2023-05-28T08:38:22;3.65;;;1.90;;
45686;SDS011;31399;51.176;7.776;2023-05-28T08:40:49;4.95;;;1.83;;
45686;SDS011;31399;51.176;7.776;2023-05-28T08:43:19;6.40;;;2.28;;
45686;SDS011;31399;51.176;7.776;2023-05-28T08:45:46;2.33;;;1.70;;
45686;SDS011;31399;51.176;7.776;2023-05-28T08:48:13;5.00;;;2.00;;
45686;SDS011;31399;51.176;7.776;2023-05-28T08:50:41;4.38;;;1.73;;
45686;SDS011;31399;51.176;7.776;2023-05-28T08:53:11;3.72;;;1.80;;
45686;SDS011;31399;51.176;7.776;2023-05-28T08:55:43;4.97;;;1.92;;
45686;SDS011;31399;51.176;7.776;2023-05-28T08:58:10;2.97;;;1.80;;
45686;SDS011;31399;51.176;7.776;2023-05-28T09:00:37;3.88;;;2.05;;
45686;SDS011;31399;51.176;7.776;2023-05-28T09:03:04;3.90;;;2.15;;
45686;SDS011;31399;51.176;7.776;2023-05-28T09:05:37;4.50;;;2.25;;
45686;SDS011;31399;51.176;7.776;2023-05-28T09:08:05;2.97;;;1.93;;
45686;SDS011;31399;51.176;7.776;2023-05-28T09:10:36;2.70;;;1.65;;
45686;SDS011;31399;51.176;7.776;2023-05-28T09:13:04;5.47;;;1.95;;
45686;SDS011;31399;51.176;7.776;2023-05-28T09:15:31;5.93;;;1.80;;
45686;SDS011;31399;51.176;7.776;2023-05-28T09:17:58;3.08;;;1.63;;
45686;SDS011;31399;51.176;7.776;2023-05-28T09:20:26;2.83;;;1.67;;
45686;SDS011;31399;51.176;7.776;2023-05-28T09:23:02;5.25;;;1.73;;
45686;SDS011;31399;51.176;7.776;2023-05-28T09:25:33;6.55;;;1.83;;
45686;SDS011;31399;51.176;7.776;2023-05-28T09:28:02;3.83;;;1.50;;
45686;SDS011;31399;51.176;7.776;2023-05-28T09:30:33;3.53;;;1.73;;
45686;SDS011;31399;51.176;7.776;2023-05-28T09:33:02;5.97;;;2.00;;
45686;SDS011;31399;51.176;7.776;2023-05-28T09:35:30;5.32;;;2.13;;
45686;SDS011;31399;51.176;7.776;2023-05-28T09:38:00;6.57;;;2.60;;
45686;SDS011;31399;51.176;7.776;2023-05-28T09:40:28;4.63;;;2.03;;
45686;SDS011;31399;51.176;7.776;2023-05-28T09:42:55;5.28;;;2.10;;
45686;SDS011;31399;51.176;7.776;2023-05-28T09:45:23;6.72;;;1.90;;
45686;SDS011;31399;51.176;7.776;2023-05-28T09:47:51;5.40;;;1.95;;
45686;SDS011;31399;51.176;7.776;2023-05-28T09:50:18;2.97;;;1.75;;
45686;SDS011;31399;51.176;7.776;2023-05-28T09:52:45;7.35;;;1.65;;
45686;SDS011;31399;51.176;7.776;2023-05-28T09:55:13;2.67;;;1.83;;
45686;SDS011;31399;51.176;7.776;2023-05-28T09:57:46;4.00;;;2.05;;
45686;SDS011;31399;51.176;7.776;2023-05-28T10:00:19;6.63;;;2.22;;
45686;SDS011;31399;51.176;7.776;2023-05-28T10:03:00;4.05;;;2.17;;
45686;SDS011;31399;51.176;7.776;2023-05-28T10:05:38;5.03;;;2.20;;
45686;SDS011;31399;51.176;7.776;2023-05-28T10:08:07;6.10;;;1.70;;
45686;SDS011;31399;51.176;7.776;2023-05-28T10:10:38;4.25;;;1.98;;
45686;SDS011;31399;51.176;7.776;2023-05-28T10:13:07;7.40;;;2.60;;
45686;SDS011;31399;51.176;7.776;2023-05-28T10:15:36;5.50;;;2.28;;
45686;SDS011;31399;51.176;7.776;2023-05-28T10:18:03;4.15;;;2.05;;
45686;SDS011;31399;51.176;7.776;2023-05-28T10:20:30;3.05;;;2.20;;
45686;SDS011;31399;51.176;7.776;2023-05-28T10:22:56;4.15;;;2.13;;
45686;SDS011;31399;51.176;7.776;2023-05-28T10:25:23;4.28;;;2.20;;
45686;SDS011;31399;51.176;7.776;2023-05-28T10:27:50;3.33;;;2.00;;
45686;SDS011;31399;51.176;7.776;2023-05-28T10:30:36;7.00;;;2.35;;
45686;SDS011;31399;51.176;7.776;2023-05-28T10:33:24;5.63;;;1.88;;
45686;SDS011;31399;51.176;7.776;2023-05-28T10:35:56;3.65;;;2.08;;
45686;SDS011;31399;51.176;7.776;2023-05-28T10:38:25;2.90;;;2.13;;
45686;SDS011;31399;51.176;7.776;2023-05-28T10:41:00;3.70;;;1.88;;
45686;SDS011;31399;51.176;7.776;2023-05-28T10:43:43;3.40;;;2.03;;
45686;SDS011;31399;51.176;7.776;2023-05-28T10:49:05;6.90;;;2.30;;
45686;SDS011;31399;51.176;7.776;2023-05-28T10:54:38;4.85;;;2.38;;
45686;SDS011;31399;51.176;7.776;2023-05-28T10:57:11;3.20;;;2.30;;
45686;SDS011;31399;51.176;7.776;2023-05-28T11:00:00;4.18;;;2.35;;
45686;SDS011;31399;51.176;7.776;2023-05-28T11:02:32;3.83;;;2.17;;
45686;SDS011;31399;51.176;7.776;2023-05-28T11:05:00;6.63;;;2.38;;
45686;SDS011;31399;51.176;7.776;2023-05-28T11:07:38;4.80;;;2.25;;
45686;SDS011;31399;51.176;7.776;2023-05-28T11:10:06;4.38;;;2.22;;
45686;SDS011;31399;51.176;7.776;2023-05-28T11:12:35;3.00;;;1.92;;
45686;SDS011;31399;51.176;7.776;2023-05-28T11:15:07;4.90;;;1.90;;
45686;SDS011;31399;51.176;7.776;2023-05-28T11:17:36;3.97;;;1.92;;
45686;SDS011;31399;51.176;7.776;2023-05-28T11:20:04;4.57;;;2.58;;
45686;SDS011;31399;51.176;7.776;2023-05-28T11:22:35;3.47;;;1.77;;
45686;SDS011;31399;51.176;7.776;2023-05-28T11:25:05;5.00;;;2.05;;
45686;SDS011;31399;51.176;7.776;2023-05-28T11:27:33;3.60;;;2.10;;
45686;SDS011;31399;51.176;7.776;2023-05-28T11:30:11;5.03;;;1.90;;
45686;SDS011;31399;51.176;7.776;2023-05-28T11:32:39;5.38;;;1.90;;
45686;SDS011;31399;51.176;7.776;2023-05-28T11:35:09;4.32;;;2.40;;
45686;SDS011;31399;51.176;7.776;2023-05-28T11:40:04;2.47;;;1.65;;
45686;SDS011;31399;51.176;7.776;2023-05-28T11:42:37;3.30;;;2.10;;
45686;SDS011;31399;51.176;7.776;2023-05-28T11:45:04;3.42;;;2.00;;
45686;SDS011;31399;51.176;7.776;2023-05-28T11:47:32;4.35;;;1.80;;
45686;SDS011;31399;51.176;7.776;2023-05-28T11:49:59;3.78;;;1.92;;
45686;SDS011;31399;51.176;7.776;2023-05-28T11:52:32;3.63;;;1.63;;
45686;SDS011;31399;51.176;7.776;2023-05-28T11:54:59;4.30;;;1.92;;
45686;SDS011;31399;51.176;7.776;2023-05-28T11:57:28;2.92;;;1.60;;
45686;SDS011;31399;51.176;7.776;2023-05-28T12:00:00;4.00;;;2.10;;
45686;SDS011;31399;51.176;7.776;2023-05-28T12:02:32;4.43;;;1.90;;
45686;SDS011;31399;51.176;7.776;2023-05-28T12:05:00;3.92;;;2.30;;
45686;SDS011;31399;51.176;7.776;2023-05-28T12:07:32;3.80;;;2.10;;
45686;SDS011;31399;51.176;7.776;2023-05-28T12:10:07;4.72;;;1.88;;
45686;SDS011;31399;51.176;7.776;2023-05-28T12:12:39;4.82;;;1.60;;
45686;SDS011;31399;51.176;7.776;2023-05-28T12:15:07;4.43;;;1.60;;
45686;SDS011;31399;51.176;7.776;2023-05-28T12:17:35;4.80;;;1.80;;
45686;SDS011;31399;51.176;7.776;2023-05-28T12:22:39;3.42;;;1.85;;
45686;SDS011;31399;51.176;7.776;2023-05-28T12:25:06;2.70;;;1.70;;
45686;SDS011;31399;51.176;7.776;2023-05-28T12:27:33;5.90;;;1.80;;
45686;SDS011;31399;51.176;7.776;2023-05-28T12:30:01;4.30;;;1.83;;
45686;SDS011;31399;51.176;7.776;2023-05-28T12:32:28;2.42;;;1.60;;
45686;SDS011;31399;51.176;7.776;2023-05-28T12:34:55;3.03;;;1.98;;
45686;SDS011;31399;51.176;7.776;2023-05-28T12:37:28;5.57;;;1.95;;
45686;SDS011;31399;51.176;7.776;2023-05-28T12:39:54;7.63;;;2.10;;
45686;SDS011;31399;51.176;7.776;2023-05-28T12:42:21;4.95;;;2.00;;
45686;SDS011;31399;51.176;7.776;2023-05-28T12:44:48;4.78;;;2.20;;
45686;SDS011;31399;51.176;7.776;2023-05-28T12:47:14;2.05;;;1.20;;
45686;SDS011;31399;51.176;7.776;2023-05-28T12:49:41;2.78;;;1.90;;
45686;SDS011;31399;51.176;7.776;2023-05-28T12:52:08;5.38;;;1.90;;
45686;SDS011;31399;51.176;7.776;2023-05-28T12:54:34;5.00;;;1.70;;
45686;SDS011;31399;51.176;7.776;2023-05-28T12:57:01;3.25;;;2.38;;
45686;SDS011;31399;51.176;7.776;2023-05-28T12:59:28;2.90;;;1.63;;
45686;SDS011;31399;51.176;7.776;2023-05-28T13:01:55;3.00;;;1.70;;
45686;SDS011;31399;51.176;7.776;2023-05-28T13:04:22;6.03;;;2.20;;
45686;SDS011;31399;51.176;7.776;2023-05-28T13:06:49;3.83;;;2.28;;
45686;SDS011;31399;51.176;7.776;2023-05-28T13:09:17;3.53;;;1.90;;
45686;SDS011;31399;51.176;7.776;2023-05-28T13:11:44;3.60;;;1.90;;
45686;SDS011;31399;51.176;7.776;2023-05-28T13:14:11;3.47;;;1.70;;
45686;SDS011;31399;51.176;7.776;2023-05-28T13:16:37;7.53;;;1.73;;
45686;SDS011;31399;51.176;7.776;2023-05-28T13:19:04;4.75;;;1.88;;
45686;SDS011;31399;51.176;7.776;2023-05-28T13:21:31;4.40;;;1.90;;
45686;SDS011;31399;51.176;7.776;2023-05-28T13:23:59;4.72;;;1.60;;
45686;SDS011;31399;51.176;7.776;2023-05-28T13:26:31;7.07;;;1.90;;
45686;SDS011;31399;51.176;7.776;2023-05-28T13:28:59;3.28;;;1.60;;
45686;SDS011;31399;51.176;7.776;2023-05-28T13:31:27;4.65;;;1.48;;
45686;SDS011;31399;51.176;7.776;2023-05-28T13:33:53;4.97;;;1.55;;
45686;SDS011;31399;51.176;7.776;2023-05-28T13:36:20;5.28;;;1.70;;
45686;SDS011;31399;51.176;7.776;2023-05-28T13:38:47;4.70;;;1.80;;
45686;SDS011;31399;51.176;7.776;2023-05-28T13:41:14;3.22;;;2.00;;
45686;SDS011;31399;51.176;7.776;2023-05-28T13:43:41;4.47;;;1.35;;
45686;SDS011;31399;51.176;7.776;2023-05-28T13:46:08;3.63;;;1.45;;
45686;SDS011;31399;51.176;7.776;2023-05-28T13:48:35;3.85;;;1.67;;
45686;SDS011;31399;51.176;7.776;2023-05-28T13:51:02;3.83;;;1.83;;
45686;SDS011;31399;51.176;7.776;2023-05-28T13:53:33;4.65;;;2.03;;
45686;SDS011;31399;51.176;7.776;2023-05-28T13:56:00;2.85;;;1.50;;
45686;SDS011;31399;51.176;7.776;2023-05-28T13:58:27;3.85;;;1.90;;
45686;SDS011;31399;51.176;7.776;2023-05-28T14:00:53;6.25;;;1.75;;
45686;SDS011;31399;51.176;7.776;2023-05-28T14:03:20;2.92;;;1.70;;
45686;SDS011;31399;51.176;7.776;2023-05-28T14:05:47;3.33;;;1.35;;
45686;SDS011;31399;51.176;7.776;2023-05-28T14:08:13;5.40;;;1.70;;
45686;SDS011;31399;51.176;7.776;2023-05-28T14:10:40;2.78;;;1.27;;
45686;SDS011;31399;51.176;7.776;2023-05-28T14:13:07;3.53;;;1.40;;
45686;SDS011;31399;51.176;7.776;2023-05-28T14:15:33;4.60;;;1.85;;
45686;SDS011;31399;51.176;7.776;2023-05-28T14:18:00;3.50;;;1.70;;
45686;SDS011;31399;51.176;7.776;2023-05-28T14:20:27;7.20;;;1.95;;
45686;SDS011;31399;51.176;7.776;2023-05-28T14:22:55;2.35;;;1.45;;
45686;SDS011;31399;51.176;7.776;2023-05-28T14:25:22;2.55;;;1.20;;
45686;SDS011;31399;51.176;7.776;2023-05-28T14:27:49;3.92;;;1.50;;
45686;SDS011;31399;51.176;7.776;2023-05-28T14:30:35;2.85;;;1.60;;
45686;SDS011;31399;51.176;7.776;2023-05-28T14:33:02;4.15;;;1.55;;
45686;SDS011;31399;51.176;7.776;2023-05-28T14:35:28;4.18;;;1.80;;
45686;SDS011;31399;51.176;7.776;2023-05-28T14:37:55;5.60;;;1.60;;
45686;SDS011;31399;51.176;7.776;2023-05-28T14:40:21;3.42;;;1.70;;
45686;SDS011;31399;51.176;7.776;2023-05-28T14:42:48;5.00;;;1.98;;
45686;SDS011;31399;51.176;7.776;2023-05-28T14:45:15;2.60;;;1.27;;
45686;SDS011;31399;51.176;7.776;2023-05-28T14:47:41;4.25;;;1.65;;
45686;SDS011;31399;51.176;7.776;2023-05-28T14:50:08;3.53;;;1.40;;
45686;SDS011;31399;51.176;7.776;2023-05-28T14:52:35;5.20;;;1.40;;
45686;SDS011;31399;51.176;7.776;2023-05-28T14:55:02;6.07;;;1.45;;
45686;SDS011;31399;51.176;7.776;2023-05-28T14:57:29;3.42;;;1.38;;
45686;SDS011;31399;51.176;7.776;2023-05-28T15:00:00;1.83;;;1.50;;
45686;SDS011;31399;51.176;7.776;2023-05-28T15:02:28;4.22;;;1.40;;
45686;SDS011;31399;51.176;7.776;2023-05-28T15:04:55;3.80;;;1.38;;
45686;SDS011;31399;51.176;7.776;2023-05-28T15:07:22;3.35;;;1.27;;
45686;SDS011;31399;51.176;7.776;2023-05-28T15:09:48;2.97;;;1.33;;
45686;SDS011;31399;51.176;7.776;2023-05-28T15:12:15;2.55;;;1.42;;
45686;SDS011;31399;51.176;7.776;2023-05-28T15:14:41;2.90;;;1.40;;
45686;SDS011;31399;51.176;7.776;2023-05-28T15:17:08;3.90;;;1.63;;
45686;SDS011;31399;51.176;7.776;2023-05-28T15:19:35;2.65;;;1.23;;